Time;durP1;ratioP1;P1;durP2;ratioP2;P2;SDS_P1;SDS_P2;PMS_P1;PMS_P2;Temp;Humidity;BMP_temperature;BMP_pressure;BME280_temperature;BME280_humidity;BME280_pressure;Samples;Min_cycle;Max_cycle;Signal;HPM_P1;HPM_P2
2022/07/29 00:00:56;;;;;;;4.60;3.10;;;;;;;;;;4985249;28;20052;-58
2022/07/29 00:03:21;;;;;;;3.58;2.03;;;;;;;;;;4987160;28;20073;-57
2022/07/29 00:05:46;;;;;;;2.85;1.88;;;;;;;;;;4986282;28;20046;-57
2022/07/29 00:08:12;;;;;;;6.03;3.28;;;;;;;;;;4986057;28;20149;-57
2022/07/29 00:10:37;;;;;;;5.63;2.63;;;;;;;;;;4985825;28;20050;-58
2022/07/29 00:13:02;;;;;;;4.93;2.67;;;;;;;;;;4986280;28;20042;-57
2022/07/29 00:15:28;;;;;;;9.65;2.50;;;;;;;;;;4986484;28;20421;-57
2022/07/29 00:17:53;;;;;;;4.45;2.50;;;;;;;;;;4985306;28;20138;-56
2022/07/29 00:20:18;;;;;;;4.95;2.38;;;;;;;;;;4986151;28;20121;-57
2022/07/29 00:22:44;;;;;;;5.93;2.58;;;;;;;;;;4985760;28;20054;-58
2022/07/29 00:25:09;;;;;;;9.43;2.53;;;;;;;;;;4985880;28;20562;-57
2022/07/29 00:27:35;;;;;;;10.75;3.65;;;;;;;;;;4985956;28;20053;-57
2022/07/29 00:30:00;;;;;;;7.40;3.08;;;;;;;;;;4986016;28;20034;-57
2022/07/29 00:32:26;;;;;;;4.72;2.42;;;;;;;;;;4986158;28;20046;-57
2022/07/29 00:37:35;;;;;;;4.90;2.90;;;;;;;;;;4985691;28;20113;-56
2022/07/29 00:40:00;;;;;;;6.13;3.10;;;;;;;;;;4985663;28;20073;-57
2022/07/29 00:42:26;;;;;;;4.07;2.17;;;;;;;;;;4983653;28;20042;-57
2022/07/29 00:44:51;;;;;;;6.43;3.72;;;;;;;;;;4987352;28;20050;-57
2022/07/29 00:47:17;;;;;;;9.45;2.63;;;;;;;;;;4985277;28;20133;-57
2022/07/29 00:49:42;;;;;;;10.25;3.10;;;;;;;;;;4985931;28;20078;-57
2022/07/29 00:52:08;;;;;;;6.10;2.42;;;;;;;;;;4985258;28;20042;-57
2022/07/29 00:54:34;;;;;;;8.25;2.67;;;;;;;;;;4986043;28;20537;-56
2022/07/29 00:57:00;;;;;;;5.75;2.65;;;;;;;;;;4983923;28;20140;-57
2022/07/29 00:59:26;;;;;;;7.00;2.28;;;;;;;;;;4985752;28;20041;-57
2022/07/29 01:01:52;;;;;;;3.22;2.78;;;;;;;;;;4984949;28;20054;-58
2022/07/29 01:04:17;;;;;;;9.07;2.63;;;;;;;;;;4987013;28;20026;-56
2022/07/29 01:06:42;;;;;;;2.97;2.17;;;;;;;;;;4984971;28;20502;-57
2022/07/29 01:09:08;;;;;;;6.55;3.30;;;;;;;;;;4985793;28;20057;-57
2022/07/29 01:11:33;;;;;;;5.90;3.58;;;;;;;;;;4985057;28;20065;-58
2022/07/29 01:14:05;;;;;;;5.70;2.42;;;;;;;;;;4985768;28;20165;-58
2022/07/29 01:16:32;;;;;;;4.07;2.25;;;;;;;;;;4984359;28;20246;-58
2022/07/29 01:19:04;;;;;;;4.00;2.40;;;;;;;;;;4985444;28;20390;-58
2022/07/29 01:21:48;;;;;;;4.93;2.90;;;;;;;;;;4988381;28;20137;-57
2022/07/29 01:24:32;;;;;;;5.88;3.03;;;;;;;;;;4989343;28;20042;-58
2022/07/29 01:27:01;;;;;;;5.45;3.50;;;;;;;;;;4988828;28;20084;-58
2022/07/29 01:29:31;;;;;;;4.57;2.90;;;;;;;;;;4989542;28;20077;-57
2022/07/29 01:32:23;;;;;;;7.38;3.53;;;;;;;;;;4988928;28;20584;-58
2022/07/29 01:34:52;;;;;;;15.60;3.55;;;;;;;;;;4985369;28;20093;-56
2022/07/29 01:37:35;;;;;;;7.55;3.45;;;;;;;;;;4988686;28;20077;-58
2022/07/29 01:40:02;;;;;;;6.97;3.42;;;;;;;;;;4988402;28;20052;-58
2022/07/29 01:42:33;;;;;;;4.82;2.67;;;;;;;;;;4987121;28;20046;-58
2022/07/29 01:45:01;;;;;;;3.80;2.95;;;;;;;;;;4988363;28;20049;-58
2022/07/29 01:47:32;;;;;;;6.30;3.05;;;;;;;;;;4988509;28;20058;-58
2022/07/29 01:49:58;;;;;;;5.18;3.03;;;;;;;;;;4988393;28;20062;-58
2022/07/29 01:52:27;;;;;;;6.63;2.58;;;;;;;;;;4987875;28;20053;-58
2022/07/29 01:54:54;;;;;;;10.45;3.47;;;;;;;;;;4989381;28;20462;-58
2022/07/29 01:57:21;;;;;;;4.60;2.92;;;;;;;;;;4990752;28;20054;-58
2022/07/29 01:59:47;;;;;;;4.28;2.97;;;;;;;;;;4989101;28;20142;-57
2022/07/29 02:02:13;;;;;;;6.97;3.22;;;;;;;;;;4989132;28;20128;-58
2022/07/29 02:04:39;;;;;;;5.00;2.85;;;;;;;;;;4988957;28;20100;-58
2022/07/29 02:07:06;;;;;;;9.63;2.95;;;;;;;;;;4988642;28;20060;-58
2022/07/29 02:09:34;;;;;;;4.82;2.75;;;;;;;;;;4988844;28;20136;-59
2022/07/29 02:12:01;;;;;;;13.38;4.22;;;;;;;;;;4988656;28;20046;-59
2022/07/29 02:14:28;;;;;;;4.30;3.17;;;;;;;;;;4989430;28;20046;-58
2022/07/29 02:16:55;;;;;;;3.15;2.55;;;;;;;;;;4989531;28;20065;-58
2022/07/29 02:19:22;;;;;;;6.32;2.85;;;;;;;;;;4989258;28;20054;-58
2022/07/29 02:21:48;;;;;;;4.88;2.40;;;;;;;;;;4988323;28;20078;-59
2022/07/29 02:24:14;;;;;;;4.47;3.63;;;;;;;;;;4989358;28;20457;-57
2022/07/29 02:35:31;;;;;;;3.38;2.20;;;;;;;;;;4988545;28;20084;-58
2022/07/29 02:40:42;;;;;;;5.00;2.85;;;;;;;;;;4988300;28;20549;-58
2022/07/29 02:43:08;;;;;;;5.75;2.88;;;;;;;;;;4988769;28;20133;-58
2022/07/29 02:48:43;;;;;;;4.70;3.30;;;;;;;;;;4987955;28;20113;-59
2022/07/29 02:51:16;;;;;;;5.00;3.33;;;;;;;;;;4987540;28;20050;-57
2022/07/29 02:53:43;;;;;;;2.75;2.13;;;;;;;;;;4988140;28;20050;-58
2022/07/29 02:56:12;;;;;;;6.07;2.13;;;;;;;;;;4988656;28;20125;-59
2022/07/29 03:01:43;;;;;;;3.90;3.35;;;;;;;;;;4987937;28;20053;-58
2022/07/29 03:04:09;;;;;;;3.58;2.65;;;;;;;;;;4988259;28;20141;-58
2022/07/29 03:06:35;;;;;;;17.30;3.33;;;;;;;;;;4988741;28;20394;-58
2022/07/29 03:09:01;;;;;;;8.95;2.72;;;;;;;;;;4988299;28;20046;-58
2022/07/29 03:11:26;;;;;;;11.10;2.42;;;;;;;;;;4987433;28;20501;-58
2022/07/29 03:13:52;;;;;;;7.28;3.38;;;;;;;;;;4987494;28;20111;-58
2022/07/29 03:16:19;;;;;;;16.33;2.58;;;;;;;;;;4988605;28;20046;-58
2022/07/29 03:18:44;;;;;;;5.35;3.35;;;;;;;;;;4988028;28;20053;-58
2022/07/29 03:21:09;;;;;;;6.47;4.70;;;;;;;;;;4987868;28;20050;-58
2022/07/29 03:23:35;;;;;;;6.20;3.17;;;;;;;;;;4988117;28;20046;-57
2022/07/29 03:26:00;;;;;;;5.60;2.85;;;;;;;;;;4988378;28;20034;-58
2022/07/29 03:28:27;;;;;;;5.20;3.50;;;;;;;;;;4987946;28;20090;-58
2022/07/29 03:30:52;;;;;;;4.45;3.03;;;;;;;;;;4988365;28;20042;-59
2022/07/29 03:33:17;;;;;;;5.18;2.35;;;;;;;;;;4988238;28;20482;-58
2022/07/29 03:35:43;;;;;;;8.13;3.05;;;;;;;;;;4987502;28;20037;-58
2022/07/29 03:38:08;;;;;;;6.65;3.28;;;;;;;;;;4987795;28;20054;-58
2022/07/29 03:40:35;;;;;;;5.60;3.63;;;;;;;;;;4987509;28;20116;-58
2022/07/29 03:43:01;;;;;;;8.40;3.25;;;;;;;;;;4986758;28;20552;-58
2022/07/29 03:45:28;;;;;;;3.10;2.47;;;;;;;;;;4987069;28;20125;-57
2022/07/29 03:47:56;;;;;;;4.55;2.83;;;;;;;;;;4985563;28;20276;-58
2022/07/29 03:50:22;;;;;;;6.70;4.25;;;;;;;;;;4987341;28;20049;-58
2022/07/29 03:52:48;;;;;;;8.15;2.80;;;;;;;;;;4987613;28;20030;-58
2022/07/29 03:55:13;;;;;;;9.80;3.85;;;;;;;;;;4987862;28;20035;-58
2022/07/29 03:57:39;;;;;;;18.92;3.97;;;;;;;;;;4987422;28;20134;-58
2022/07/29 04:00:05;;;;;;;4.40;3.03;;;;;;;;;;4985790;28;20053;-57
2022/07/29 04:02:32;;;;;;;8.10;3.13;;;;;;;;;;4986943;28;20133;-58
2022/07/29 04:04:57;;;;;;;6.65;3.13;;;;;;;;;;4987576;28;20131;-55
2022/07/29 04:07:22;;;;;;;7.90;2.88;;;;;;;;;;4987332;28;20540;-57
2022/07/29 04:09:48;;;;;;;4.22;3.75;;;;;;;;;;4987158;28;20512;-58
2022/07/29 04:12:13;;;;;;;3.60;2.85;;;;;;;;;;4986721;28;20070;-58
2022/07/29 04:14:38;;;;;;;5.60;4.00;;;;;;;;;;4986698;28;20082;-58
2022/07/29 04:17:04;;;;;;;5.20;3.03;;;;;;;;;;4987359;28;20048;-58
2022/07/29 04:19:30;;;;;;;14.38;3.55;;;;;;;;;;4987026;28;20042;-58
2022/07/29 04:21:56;;;;;;;4.63;3.60;;;;;;;;;;4986897;28;20046;-58
2022/07/29 04:24:21;;;;;;;4.55;3.22;;;;;;;;;;4986856;28;20072;-58
2022/07/29 04:26:46;;;;;;;4.70;3.10;;;;;;;;;;4985203;28;20042;-58
2022/07/29 04:29:13;;;;;;;4.32;3.20;;;;;;;;;;4986798;28;20097;-58
2022/07/29 04:31:39;;;;;;;5.22;3.70;;;;;;;;;;4986231;28;20074;-58
2022/07/29 04:34:04;;;;;;;6.43;4.10;;;;;;;;;;4986796;28;20070;-57
2022/07/29 04:36:29;;;;;;;4.50;3.85;;;;;;;;;;4985979;28;20065;-58
2022/07/29 04:38:55;;;;;;;11.65;5.70;;;;;;;;;;4986385;28;20050;-58
2022/07/29 04:41:20;;;;;;;10.43;3.85;;;;;;;;;;4986827;28;20513;-57
2022/07/29 04:43:45;;;;;;;8.98;3.38;;;;;;;;;;4986021;28;20049;-58
2022/07/29 04:46:11;;;;;;;5.38;3.20;;;;;;;;;;4987736;28;20112;-58
2022/07/29 04:48:36;;;;;;;11.13;2.70;;;;;;;;;;4986015;28;20541;-58
2022/07/29 04:51:01;;;;;;;4.72;2.80;;;;;;;;;;4987094;28;20042;-57
2022/07/29 04:53:27;;;;;;;6.10;3.80;;;;;;;;;;4985650;28;20050;-57
2022/07/29 04:55:52;;;;;;;8.00;4.30;;;;;;;;;;4988349;28;20350;-58
2022/07/29 04:58:18;;;;;;;8.13;3.55;;;;;;;;;;4989757;28;20132;-57
2022/07/29 05:00:43;;;;;;;6.00;4.05;;;;;;;;;;4990663;28;20121;-57
2022/07/29 05:03:08;;;;;;;7.03;4.30;;;;;;;;;;4989973;28;20424;-57
2022/07/29 05:05:34;;;;;;;7.63;3.85;;;;;;;;;;4988987;28;20185;-57
2022/07/29 05:07:59;;;;;;;14.00;5.05;;;;;;;;;;4989859;28;20050;-57
2022/07/29 05:10:24;;;;;;;8.50;3.92;;;;;;;;;;4989388;28;20065;-57
2022/07/29 05:12:50;;;;;;;5.35;3.28;;;;;;;;;;4990026;28;20039;-57
2022/07/29 05:15:16;;;;;;;7.97;4.43;;;;;;;;;;4989576;28;20053;-57
2022/07/29 05:17:41;;;;;;;11.13;3.75;;;;;;;;;;4988978;28;20053;-57
2022/07/29 05:20:07;;;;;;;7.57;4.05;;;;;;;;;;4989267;28;20439;-57
2022/07/29 05:22:32;;;;;;;7.68;4.95;;;;;;;;;;4989524;28;20043;-57
2022/07/29 05:24:58;;;;;;;17.30;4.38;;;;;;;;;;4989110;28;20505;-56
2022/07/29 05:27:23;;;;;;;5.80;3.90;;;;;;;;;;4988713;28;20409;-57
2022/07/29 05:29:48;;;;;;;10.57;4.57;;;;;;;;;;4989095;28;20060;-56
2022/07/29 05:32:13;;;;;;;12.20;4.68;;;;;;;;;;4989083;28;20054;-54
2022/07/29 05:34:39;;;;;;;9.65;5.45;;;;;;;;;;4988196;28;20068;-54
2022/07/29 05:37:05;;;;;;;7.75;3.95;;;;;;;;;;4987510;28;20054;-54
2022/07/29 05:39:30;;;;;;;7.75;4.68;;;;;;;;;;4987829;28;20156;-56
2022/07/29 05:41:55;;;;;;;8.13;3.92;;;;;;;;;;4987462;28;20042;-51
2022/07/29 05:44:21;;;;;;;9.15;3.70;;;;;;;;;;4988142;28;20129;-55
2022/07/29 05:46:46;;;;;;;7.28;4.07;;;;;;;;;;4988195;28;20089;-56
2022/07/29 05:49:11;;;;;;;7.88;5.80;;;;;;;;;;4988641;28;20062;-54
2022/07/29 05:51:37;;;;;;;5.22;4.70;;;;;;;;;;4987745;28;20069;-55
2022/07/29 05:54:02;;;;;;;7.25;5.43;;;;;;;;;;4988914;28;20464;-55
2022/07/29 05:56:27;;;;;;;6.00;4.93;;;;;;;;;;4988288;28;20466;-53
2022/07/29 05:58:53;;;;;;;8.02;4.53;;;;;;;;;;4988737;28;20458;-54
2022/07/29 06:01:18;;;;;;;7.25;5.25;;;;;;;;;;4988564;28;20037;-55
2022/07/29 06:03:43;;;;;;;13.75;6.53;;;;;;;;;;4988664;28;20035;-55
2022/07/29 06:06:09;;;;;;;16.60;4.15;;;;;;;;;;4988484;28;20050;-54
2022/07/29 06:08:34;;;;;;;11.98;5.78;;;;;;;;;;4987675;28;20046;-55
2022/07/29 06:11:01;;;;;;;15.38;5.30;;;;;;;;;;4987805;28;20046;-53
2022/07/29 06:13:26;;;;;;;30.80;4.43;;;;;;;;;;4988020;28;20050;-55
2022/07/29 06:15:51;;;;;;;7.85;5.40;;;;;;;;;;4989084;28;20064;-51
2022/07/29 06:18:17;;;;;;;12.82;3.85;;;;;;;;;;4988410;28;20101;-54
2022/07/29 06:20:42;;;;;;;9.32;5.10;;;;;;;;;;4988517;28;20054;-53
2022/07/29 06:23:07;;;;;;;9.77;8.00;;;;;;;;;;4988626;28;20409;-51
2022/07/29 06:25:35;;;;;;;15.48;7.35;;;;;;;;;;4987402;28;20492;-49
2022/07/29 06:28:00;;;;;;;14.35;6.40;;;;;;;;;;4987265;28;20081;-60
2022/07/29 06:30:26;;;;;;;15.00;4.95;;;;;;;;;;4988664;28;20081;-55
2022/07/29 06:32:51;;;;;;;16.20;6.50;;;;;;;;;;4988432;28;20050;-57
2022/07/29 06:35:16;;;;;;;7.05;3.85;;;;;;;;;;4988185;28;20046;-57
2022/07/29 06:37:42;;;;;;;11.80;7.47;;;;;;;;;;4987895;28;20054;-57
2022/07/29 06:42:51;;;;;;;7.07;5.07;;;;;;;;;;4983220;28;20524;-57
2022/07/29 06:45:16;;;;;;;9.60;6.43;;;;;;;;;;4988084;28;20046;-57
2022/07/29 06:47:42;;;;;;;13.18;5.20;;;;;;;;;;4987837;28;20142;-56
2022/07/29 06:50:11;;;;;;;11.10;3.85;;;;;;;;;;4988720;28;20045;-57
2022/07/29 06:52:36;;;;;;;10.93;5.40;;;;;;;;;;4988147;28;20112;-57
2022/07/29 06:55:02;;;;;;;13.93;7.55;;;;;;;;;;4988296;28;20910;-57
2022/07/29 06:57:27;;;;;;;21.77;6.30;;;;;;;;;;4988067;28;20073;-56
2022/07/29 06:59:53;;;;;;;23.83;13.25;;;;;;;;;;4984978;28;20137;-56
2022/07/29 07:02:18;;;;;;;23.15;9.25;;;;;;;;;;4987895;28;20513;-54
2022/07/29 07:04:43;;;;;;;22.90;7.93;;;;;;;;;;4988148;28;20045;-53
2022/07/29 07:07:08;;;;;;;10.90;6.88;;;;;;;;;;4987857;28;20501;-54
2022/07/29 07:09:34;;;;;;;7.55;5.05;;;;;;;;;;4987990;28;20752;-55
2022/07/29 07:11:59;;;;;;;15.25;5.95;;;;;;;;;;4987467;28;20569;-55
2022/07/29 07:14:26;;;;;;;6.57;4.57;;;;;;;;;;4988306;28;20596;-54
2022/07/29 07:16:51;;;;;;;10.13;3.63;;;;;;;;;;4987403;28;20042;-54
2022/07/29 07:19:18;;;;;;;13.60;6.82;;;;;;;;;;4986765;28;20046;-53
2022/07/29 07:21:44;;;;;;;10.95;5.38;;;;;;;;;;4987560;28;20136;-56
2022/07/29 07:24:09;;;;;;;7.00;4.65;;;;;;;;;;4987941;28;20050;-55
2022/07/29 07:26:35;;;;;;;10.98;4.07;;;;;;;;;;4987627;28;20062;-55
2022/07/29 07:29:00;;;;;;;14.02;4.78;;;;;;;;;;4987578;28;20089;-53
2022/07/29 07:31:25;;;;;;;10.70;4.70;;;;;;;;;;4987475;28;20109;-54
2022/07/29 07:33:51;;;;;;;17.13;5.25;;;;;;;;;;4988048;28;20054;-51
2022/07/29 07:36:17;;;;;;;4.63;3.55;;;;;;;;;;4985917;28;20038;-54
2022/07/29 07:38:42;;;;;;;11.23;4.13;;;;;;;;;;4986182;28;20073;-58
2022/07/29 07:41:07;;;;;;;3.67;2.70;;;;;;;;;;4987182;28;20038;-56
2022/07/29 07:43:33;;;;;;;6.70;4.20;;;;;;;;;;4986962;28;20718;-51
2022/07/29 07:45:59;;;;;;;9.23;5.35;;;;;;;;;;4987442;28;20048;-56
2022/07/29 07:48:24;;;;;;;4.78;4.22;;;;;;;;;;4987369;28;20046;-55
2022/07/29 07:50:50;;;;;;;11.68;4.72;;;;;;;;;;4986389;28;20101;-56
2022/07/29 07:53:15;;;;;;;7.72;5.32;;;;;;;;;;4986833;28;20054;-55
2022/07/29 07:55:41;;;;;;;9.30;4.57;;;;;;;;;;4987481;28;20061;-53
2022/07/29 07:58:06;;;;;;;7.85;5.55;;;;;;;;;;4985678;28;20412;-53
2022/07/29 08:00:32;;;;;;;5.40;4.05;;;;;;;;;;4986600;28;20121;-56
2022/07/29 08:02:57;;;;;;;10.15;6.32;;;;;;;;;;4987280;28;20497;-54
2022/07/29 08:05:23;;;;;;;5.18;4.68;;;;;;;;;;4987637;28;20565;-54
2022/07/29 08:07:48;;;;;;;6.65;4.45;;;;;;;;;;4985745;28;20687;-56
2022/07/29 08:10:14;;;;;;;5.82;3.20;;;;;;;;;;4983993;28;20128;-55
2022/07/29 08:12:40;;;;;;;5.05;4.32;;;;;;;;;;4986936;28;20046;-55
2022/07/29 08:15:07;;;;;;;18.92;5.13;;;;;;;;;;4987031;28;20137;-54
2022/07/29 08:17:32;;;;;;;7.20;4.57;;;;;;;;;;4986705;28;20124;-53
2022/07/29 08:19:58;;;;;;;7.68;4.05;;;;;;;;;;4986953;28;20077;-55
2022/07/29 08:22:23;;;;;;;5.80;4.43;;;;;;;;;;4987341;28;20035;-56
2022/07/29 08:24:55;;;;;;;4.45;4.00;;;;;;;;;;4986485;28;20117;-55
2022/07/29 08:27:21;;;;;;;7.53;4.43;;;;;;;;;;4985294;28;20046;-53
2022/07/29 08:29:46;;;;;;;5.18;3.15;;;;;;;;;;4983750;28;20050;-55
2022/07/29 08:32:12;;;;;;;9.35;4.10;;;;;;;;;;4986710;28;20411;-55
2022/07/29 08:34:37;;;;;;;5.72;3.38;;;;;;;;;;4987610;28;20061;-51
2022/07/29 08:37:02;;;;;;;4.20;2.00;;;;;;;;;;4985190;28;20501;-55
2022/07/29 08:39:27;;;;;;;5.32;4.00;;;;;;;;;;4987048;28;20128;-55
2022/07/29 08:41:54;;;;;;;8.80;3.17;;;;;;;;;;4985616;28;20056;-52
2022/07/29 08:44:21;;;;;;;21.10;4.43;;;;;;;;;;4984286;28;20525;-52
2022/07/29 08:46:46;;;;;;;5.80;4.00;;;;;;;;;;4987926;28;20050;-52
2022/07/29 08:49:12;;;;;;;11.82;3.67;;;;;;;;;;4985915;28;20123;-55
2022/07/29 08:51:39;;;;;;;4.00;3.45;;;;;;;;;;4986232;28;20750;-51
2022/07/29 08:54:05;;;;;;;3.97;2.58;;;;;;;;;;4987012;28;20053;-55
2022/07/29 08:56:30;;;;;;;4.20;3.67;;;;;;;;;;4987477;28;20121;-57
2022/07/29 08:58:57;;;;;;;10.38;3.53;;;;;;;;;;4987188;28;20042;-57
2022/07/29 09:01:24;;;;;;;7.40;3.50;;;;;;;;;;4986132;28;20077;-61
2022/07/29 09:03:49;;;;;;;6.53;2.67;;;;;;;;;;4986239;28;20050;-62
2022/07/29 09:06:17;;;;;;;9.65;3.00;;;;;;;;;;4986113;28;20530;-62
2022/07/29 09:08:43;;;;;;;8.05;3.53;;;;;;;;;;4982773;28;20494;-61
2022/07/29 09:11:09;;;;;;;7.25;5.13;;;;;;;;;;4984998;28;20058;-60
2022/07/29 09:13:35;;;;;;;34.80;3.90;;;;;;;;;;4985125;28;20085;-60
2022/07/29 09:16:00;;;;;;;8.15;2.58;;;;;;;;;;4985643;28;20085;-60
2022/07/29 09:18:36;;;;;;;4.22;2.70;;;;;;;;;;4986073;28;20056;-61
2022/07/29 09:24:01;;;;;;;7.18;2.60;;;;;;;;;;4985895;28;20053;-61
2022/07/29 09:26:26;;;;;;;;;;;;;;;;;;4986081;28;20077;-61
2022/07/29 09:28:51;;;;;;;4.95;2.67;;;;;;;;;;4985836;28;19969;-61
2022/07/29 09:31:17;;;;;;;5.50;2.67;;;;;;;;;;4983818;28;20089;-61
2022/07/29 09:33:42;;;;;;;3.97;2.67;;;;;;;;;;4985575;28;20118;-61
2022/07/29 09:36:09;;;;;;;7.22;2.72;;;;;;;;;;4983473;28;20049;-61
2022/07/29 09:38:35;;;;;;;3.72;2.70;;;;;;;;;;4985171;28;20506;-62
2022/07/29 09:41:01;;;;;;;7.15;2.10;;;;;;;;;;4984402;28;20046;-61
2022/07/29 09:43:27;;;;;;;4.78;3.33;;;;;;;;;;4987988;28;20378;-61
2022/07/29 09:45:52;;;;;;;2.75;2.25;;;;;;;;;;4988620;28;20569;-61
2022/07/29 09:48:18;;;;;;;3.00;2.38;;;;;;;;;;4988836;28;20505;-61
2022/07/29 09:50:44;;;;;;;6.40;3.13;;;;;;;;;;4988570;28;20050;-61
2022/07/29 09:53:10;;;;;;;6.35;3.80;;;;;;;;;;4987640;28;20038;-61
2022/07/29 09:55:49;;;;;;;9.50;3.28;;;;;;;;;;4987692;28;20145;-62
2022/07/29 09:58:16;;;;;;;4.28;3.33;;;;;;;;;;4988422;28;20101;-61
2022/07/29 10:00:41;;;;;;;8.05;4.35;;;;;;;;;;4988147;28;20454;-61
2022/07/29 10:03:07;;;;;;;7.97;4.05;;;;;;;;;;4988395;28;20038;-61
2022/07/29 10:05:32;;;;;;;2.65;1.65;;;;;;;;;;4987946;28;20057;-62
2022/07/29 10:07:57;;;;;;;6.25;3.10;;;;;;;;;;4988332;28;20073;-62
2022/07/29 10:10:26;;;;;;;10.82;5.00;;;;;;;;;;4988738;28;20409;-63
2022/07/29 10:12:54;;;;;;;4.22;2.45;;;;;;;;;;4988311;28;20073;-62
2022/07/29 10:15:21;;;;;;;23.17;11.65;;;;;;;;;;4987479;28;20109;-62
2022/07/29 10:17:46;;;;;;;5.50;2.88;;;;;;;;;;4988811;28;20553;-63
2022/07/29 10:20:12;;;;;;;2.03;1.58;;;;;;;;;;4988466;28;20058;-62
2022/07/29 10:22:37;;;;;;;3.17;1.92;;;;;;;;;;4987301;28;20062;-63
2022/07/29 10:25:03;;;;;;;3.58;1.88;;;;;;;;;;4988233;28;20049;-61
2022/07/29 10:27:28;;;;;;;10.07;3.50;;;;;;;;;;4987763;28;20042;-61
2022/07/29 10:29:53;;;;;;;4.93;3.25;;;;;;;;;;4988127;28;20048;-62
2022/07/29 10:32:37;;;;;;;6.43;2.88;;;;;;;;;;4987628;28;20150;-61
2022/07/29 10:35:03;;;;;;;4.82;2.45;;;;;;;;;;4985876;28;20050;-61
2022/07/29 10:37:31;;;;;;;2.65;1.48;;;;;;;;;;4987852;28;20057;-61
2022/07/29 10:39:56;;;;;;;7.25;2.00;;;;;;;;;;4987040;28;20117;-61
2022/07/29 10:42:24;;;;;;;4.47;2.92;;;;;;;;;;4987958;28;20409;-48
2022/07/29 10:44:50;;;;;;;3.80;3.15;;;;;;;;;;4987203;28;20046;-49
2022/07/29 10:47:21;;;;;;;3.53;1.70;;;;;;;;;;4986600;28;20130;-49
2022/07/29 10:50:13;;;;;;;3.15;1.75;;;;;;;;;;4986820;28;20046;-51
2022/07/29 10:52:52;;;;;;;3.95;1.88;;;;;;;;;;4983752;28;20050;-46
2022/07/29 10:55:29;;;;;;;12.80;7.15;;;;;;;;;;4987904;28;20042;-46
2022/07/29 10:58:13;;;;;;;5.10;3.00;;;;;;;;;;4987007;28;20132;-49
2022/07/29 11:00:39;;;;;;;7.75;2.10;;;;;;;;;;4987260;28;20047;-45
2022/07/29 11:03:04;;;;;;;7.07;2.78;;;;;;;;;;4986356;28;20563;-46
2022/07/29 11:05:31;;;;;;;8.85;7.50;;;;;;;;;;4987447;28;20073;-45
2022/07/29 11:08:24;;;;;;;3.97;2.38;;;;;;;;;;4987231;28;20170;-48
2022/07/29 11:10:50;;;;;;;4.40;3.63;;;;;;;;;;4987225;28;20057;-48
2022/07/29 11:13:35;;;;;;;5.13;1.63;;;;;;;;;;4987349;28;20062;-49
2022/07/29 11:16:01;;;;;;;7.85;2.00;;;;;;;;;;4976080;28;20050;-46
2022/07/29 11:18:26;;;;;;;5.70;3.50;;;;;;;;;;4987098;28;20498;-46
2022/07/29 11:20:53;;;;;;;4.57;3.40;;;;;;;;;;4987602;28;20078;-46
2022/07/29 11:23:23;;;;;;;9.65;4.30;;;;;;;;;;4985126;28;20537;-47
2022/07/29 11:26:07;;;;;;;3.65;1.70;;;;;;;;;;4987302;28;20068;-46
2022/07/29 11:28:33;;;;;;;2.33;1.55;;;;;;;;;;4982612;28;20046;-47
2022/07/29 11:30:59;;;;;;;6.90;3.25;;;;;;;;;;4987138;28;20054;-51
2022/07/29 11:33:31;;;;;;;5.50;3.25;;;;;;;;;;4986796;28;20738;-49
2022/07/29 11:36:15;;;;;;;4.72;3.47;;;;;;;;;;4985244;28;20061;-49
2022/07/29 11:38:40;;;;;;;10.45;5.93;;;;;;;;;;4986657;28;20086;-45
2022/07/29 11:41:25;;;;;;;12.27;4.90;;;;;;;;;;4987188;28;20088;-46
2022/07/29 11:43:57;;;;;;;6.03;5.15;;;;;;;;;;4985127;28;20047;-45
2022/07/29 11:46:41;;;;;;;13.95;5.30;;;;;;;;;;4986567;28;20054;-47
2022/07/29 11:49:07;;;;;;;12.05;4.65;;;;;;;;;;4986401;28;20050;-45
2022/07/29 11:51:33;;;;;;;12.45;4.78;;;;;;;;;;4987117;28;20050;-44
2022/07/29 11:53:58;;;;;;;13.57;4.65;;;;;;;;;;4986786;28;20612;-47
2022/07/29 11:56:26;;;;;;;11.20;5.28;;;;;;;;;;4986544;28;20150;-46
2022/07/29 11:59:01;;;;;;;12.05;5.32;;;;;;;;;;4986550;28;20140;-49
2022/07/29 12:01:26;;;;;;;6.78;3.38;;;;;;;;;;4986147;28;20142;-47
2022/07/29 12:04:02;;;;;;;6.65;3.13;;;;;;;;;;4986526;28;20129;-45
2022/07/29 12:06:27;;;;;;;5.40;4.70;;;;;;;;;;4986597;28;20490;-49
2022/07/29 12:08:52;;;;;;;13.60;3.92;;;;;;;;;;4986784;28;20100;-46
2022/07/29 12:11:18;;;;;;;7.97;2.97;;;;;;;;;;4986765;28;20592;-46
2022/07/29 12:13:44;;;;;;;4.53;2.45;;;;;;;;;;4986355;28;20605;-47
2022/07/29 12:16:09;;;;;;;6.30;2.72;;;;;;;;;;4987052;28;20540;-47
2022/07/29 12:18:34;;;;;;;7.82;3.70;;;;;;;;;;4985431;28;20421;-46
2022/07/29 12:21:03;;;;;;;9.48;3.20;;;;;;;;;;4986391;28;20046;-49
2022/07/29 12:23:28;;;;;;;12.38;3.72;;;;;;;;;;4985477;28;20050;-46
2022/07/29 12:25:54;;;;;;;11.02;4.00;;;;;;;;;;4986481;28;20125;-50
2022/07/29 12:28:21;;;;;;;4.63;3.83;;;;;;;;;;4984175;28;20054;-45
2022/07/29 12:30:50;;;;;;;4.00;2.83;;;;;;;;;;4985171;28;20046;-49
2022/07/29 12:33:27;;;;;;;3.25;2.17;;;;;;;;;;4985728;28;20784;-48
2022/07/29 12:35:56;;;;;;;5.47;3.70;;;;;;;;;;4985821;28;20042;-44
2022/07/29 12:38:22;;;;;;;6.00;2.90;;;;;;;;;;4985263;28;20042;-50
2022/07/29 12:40:48;;;;;;;5.43;3.20;;;;;;;;;;4986035;28;20038;-50
2022/07/29 12:43:14;;;;;;;5.45;3.55;;;;;;;;;;4983492;28;20042;-50
2022/07/29 12:45:43;;;;;;;7.80;3.03;;;;;;;;;;4986133;28;20623;-46
2022/07/29 12:48:09;;;;;;;8.20;4.10;;;;;;;;;;4983996;28;20170;-50
2022/07/29 12:50:35;;;;;;;3.88;1.92;;;;;;;;;;4985531;28;20125;-45
2022/07/29 12:53:13;;;;;;;5.70;2.88;;;;;;;;;;4982411;28;20055;-48
2022/07/29 12:55:42;;;;;;;3.75;2.03;;;;;;;;;;4986559;28;20101;-47
2022/07/29 12:58:08;;;;;;;5.63;3.10;;;;;;;;;;4987568;28;20057;-45
2022/07/29 13:00:33;;;;;;;7.85;2.67;;;;;;;;;;4986365;28;20042;-44
2022/07/29 13:02:59;;;;;;;6.45;3.13;;;;;;;;;;4987644;28;20052;-49
2022/07/29 13:05:38;;;;;;;7.55;2.72;;;;;;;;;;4986028;28;20054;-46
2022/07/29 13:08:10;;;;;;;5.15;4.25;;;;;;;;;;4983921;28;20137;-49
2022/07/29 13:10:36;;;;;;;2.70;2.15;;;;;;;;;;4988048;28;20046;-48
2022/07/29 13:13:12;;;;;;;2.92;2.33;;;;;;;;;;4985086;28;20042;-47
2022/07/29 13:15:38;;;;;;;5.35;2.33;;;;;;;;;;4986155;28;20042;-46
2022/07/29 13:18:04;;;;;;;8.82;3.78;;;;;;;;;;4988967;28;20074;-45
2022/07/29 13:20:30;;;;;;;4.15;1.98;;;;;;;;;;4990946;28;20133;-45
2022/07/29 13:22:57;;;;;;;12.68;1.98;;;;;;;;;;4989239;28;20178;-48
2022/07/29 13:25:26;;;;;;;5.38;2.58;;;;;;;;;;4990671;28;20116;-48
2022/07/29 13:27:54;;;;;;;2.85;1.90;;;;;;;;;;4986669;28;20147;-48
2022/07/29 13:30:20;;;;;;;2.78;2.08;;;;;;;;;;4989122;28;20053;-47
2022/07/29 13:32:45;;;;;;;8.02;3.58;;;;;;;;;;4986197;28;20054;-47
2022/07/29 13:35:11;;;;;;;8.55;2.55;;;;;;;;;;4990552;28;20042;-48
2022/07/29 13:37:39;;;;;;;9.30;4.40;;;;;;;;;;4989292;28;20045;-51
2022/07/29 13:40:05;;;;;;;5.32;2.45;;;;;;;;;;4989251;28;20047;-47
2022/07/29 13:42:33;;;;;;;5.10;4.30;;;;;;;;;;4989850;28;20034;-46
2022/07/29 13:44:59;;;;;;;3.58;2.70;;;;;;;;;;4989161;28;20137;-45
2022/07/29 13:47:25;;;;;;;8.25;4.28;;;;;;;;;;4988476;28;20177;-48
2022/07/29 13:49:50;;;;;;;3.00;2.28;;;;;;;;;;4989112;28;20046;-51
2022/07/29 13:52:16;;;;;;;17.42;2.83;;;;;;;;;;4986577;28;20078;-45
2022/07/29 13:54:44;;;;;;;4.53;3.50;;;;;;;;;;4988396;28;20362;-48
2022/07/29 13:57:10;;;;;;;4.30;2.22;;;;;;;;;;4989908;28;20158;-44
2022/07/29 13:59:35;;;;;;;2.53;1.77;;;;;;;;;;4990584;28;20063;-50
2022/07/29 14:02:01;;;;;;;5.00;1.38;;;;;;;;;;4989323;28;20046;-47
2022/07/29 14:04:26;;;;;;;7.03;2.88;;;;;;;;;;4989449;28;21107;-47
2022/07/29 14:06:51;;;;;;;2.97;1.77;;;;;;;;;;4987748;28;20035;-51
2022/07/29 14:09:17;;;;;;;3.65;2.10;;;;;;;;;;4988128;28;20068;-47
2022/07/29 14:11:43;;;;;;;2.55;1.13;;;;;;;;;;4969695;28;20057;-47
2022/07/29 14:14:09;;;;;;;5.85;3.08;;;;;;;;;;4987991;28;20119;-51
2022/07/29 14:16:35;;;;;;;7.75;2.45;;;;;;;;;;4988281;28;20046;-49
2022/07/29 14:19:00;;;;;;;10.80;2.35;;;;;;;;;;4987044;28;20066;-49
2022/07/29 14:21:25;;;;;;;5.43;4.63;;;;;;;;;;4986969;28;20035;-50
2022/07/29 14:23:52;;;;;;;13.55;1.67;;;;;;;;;;4987766;28;20045;-46
2022/07/29 14:26:17;;;;;;;2.45;2.08;;;;;;;;;;4987773;28;20981;-50
2022/07/29 14:28:44;;;;;;;6.43;2.80;;;;;;;;;;4986872;28;20078;-48
2022/07/29 14:31:09;;;;;;;3.58;1.92;;;;;;;;;;4987787;28;20046;-48
2022/07/29 14:33:35;;;;;;;3.42;2.85;;;;;;;;;;4988295;28;20553;-50
2022/07/29 14:36:00;;;;;;;4.32;2.33;;;;;;;;;;4988029;28;20156;-47
2022/07/29 14:38:26;;;;;;;8.30;3.40;;;;;;;;;;4984456;28;20429;-49
2022/07/29 14:40:51;;;;;;;10.13;3.15;;;;;;;;;;4988049;28;20053;-51
2022/07/29 14:43:17;;;;;;;7.05;3.75;;;;;;;;;;4987951;28;20078;-50
2022/07/29 14:45:42;;;;;;;1.75;1.20;;;;;;;;;;4987788;28;20065;-45
2022/07/29 14:48:07;;;;;;;8.02;3.95;;;;;;;;;;4987276;28;20112;-48
2022/07/29 14:50:32;;;;;;;5.45;4.45;;;;;;;;;;4987362;28;20568;-47
2022/07/29 14:52:58;;;;;;;7.88;5.18;;;;;;;;;;4986637;28;20030;-46
2022/07/29 14:55:24;;;;;;;4.22;2.85;;;;;;;;;;4985832;28;20054;-47
2022/07/29 14:57:49;;;;;;;2.85;1.50;;;;;;;;;;4987741;28;20054;-49
2022/07/29 15:00:15;;;;;;;7.88;4.13;;;;;;;;;;4986523;28;20132;-47
2022/07/29 15:02:40;;;;;;;3.25;2.95;;;;;;;;;;4988151;28;20050;-49
2022/07/29 15:05:06;;;;;;;6.40;3.78;;;;;;;;;;4987711;28;20050;-50